sensor_id;sensor_type;location;lat;lon;timestamp;temperature;humidity
19279;DHT22;9773;47.062;15.446;2023-06-04T00:00:46;16.10;99.30
19279;DHT22;9773;47.062;15.446;2023-06-04T00:03:12;16.20;99.30
19279;DHT22;9773;47.062;15.446;2023-06-04T00:05:38;16.10;99.30
19279;DHT22;9773;47.062;15.446;2023-06-04T00:08:04;16.10;99.40
19279;DHT22;9773;47.062;15.446;2023-06-04T00:10:30;16.00;99.60
19279;DHT22;9773;47.062;15.446;2023-06-04T00:12:56;15.90;99.70
19279;DHT22;9773;47.062;15.446;2023-06-04T00:15:22;16.00;99.80
19279;DHT22;9773;47.062;15.446;2023-06-04T00:17:48;16.00;99.70
19279;DHT22;9773;47.062;15.446;2023-06-04T00:20:14;16.10;99.60
19279;DHT22;9773;47.062;15.446;2023-06-04T00:22:39;16.20;99.60
19279;DHT22;9773;47.062;15.446;2023-06-04T00:25:08;16.30;99.40
19279;DHT22;9773;47.062;15.446;2023-06-04T00:27:35;16.10;99.50
19279;DHT22;9773;47.062;15.446;2023-06-04T00:30:01;16.10;99.70
19279;DHT22;9773;47.062;15.446;2023-06-04T00:32:27;16.00;99.70
19279;DHT22;9773;47.062;15.446;2023-06-04T00:34:55;16.00;99.80
19279;DHT22;9773;47.062;15.446;2023-06-04T00:37:23;15.90;99.90
19279;DHT22;9773;47.062;15.446;2023-06-04T00:39:49;15.90;99.90
19279;DHT22;9773;47.062;15.446;2023-06-04T00:42:16;15.90;99.90
19279;DHT22;9773;47.062;15.446;2023-06-04T00:44:42;16.00;99.90
19279;DHT22;9773;47.062;15.446;2023-06-04T00:47:13;16.00;99.90
19279;DHT22;9773;47.062;15.446;2023-06-04T00:49:40;15.90;99.90
19279;DHT22;9773;47.062;15.446;2023-06-04T00:52:08;16.00;99.90
19279;DHT22;9773;47.062;15.446;2023-06-04T00:54:35;15.90;99.90
19279;DHT22;9773;47.062;15.446;2023-06-04T00:57:01;16.00;99.90
19279;DHT22;9773;47.062;15.446;2023-06-04T00:59:29;16.00;99.90
19279;DHT22;9773;47.062;15.446;2023-06-04T01:02:13;16.00;99.90
19279;DHT22;9773;47.062;15.446;2023-06-04T01:07:35;16.00;99.90
19279;DHT22;9773;47.062;15.446;2023-06-04T01:10:02;16.00;99.90
19279;DHT22;9773;47.062;15.446;2023-06-04T01:12:28;16.10;99.80
19279;DHT22;9773;47.062;15.446;2023-06-04T01:14:54;16.10;99.70
19279;DHT22;9773;47.062;15.446;2023-06-04T01:17:23;16.10;99.70
19279;DHT22;9773;47.062;15.446;2023-06-04T01:22:48;16.00;99.70
19279;DHT22;9773;47.062;15.446;2023-06-04T01:25:39;16.00;99.90
19279;DHT22;9773;47.062;15.446;2023-06-04T01:28:07;16.00;99.80
19279;DHT22;9773;47.062;15.446;2023-06-04T01:30:35;15.90;99.90
19279;DHT22;9773;47.062;15.446;2023-06-04T01:33:03;15.90;99.90
19279;DHT22;9773;47.062;15.446;2023-06-04T01:35:29;16.00;99.90
19279;DHT22;9773;47.062;15.446;2023-06-04T01:37:58;16.00;99.90
19279;DHT22;9773;47.062;15.446;2023-06-04T01:40:24;16.00;99.70
19279;DHT22;9773;47.062;15.446;2023-06-04T01:42:51;16.00;99.90
19279;DHT22;9773;47.062;15.446;2023-06-04T01:45:17;16.00;99.70
19279;DHT22;9773;47.062;15.446;2023-06-04T01:47:42;16.00;99.70
19279;DHT22;9773;47.062;15.446;2023-06-04T01:50:09;16.00;99.70
19279;DHT22;9773;47.062;15.446;2023-06-04T01:52:40;16.00;99.60
19279;DHT22;9773;47.062;15.446;2023-06-04T01:55:08;16.10;99.70
19279;DHT22;9773;47.062;15.446;2023-06-04T01:57:34;16.10;99.60
19279;DHT22;9773;47.062;15.446;2023-06-04T02:00:05;15.90;99.60
19279;DHT22;9773;47.062;15.446;2023-06-04T02:02:34;16.10;99.70
19279;DHT22;9773;47.062;15.446;2023-06-04T02:05:01;16.10;99.60
19279;DHT22;9773;47.062;15.446;2023-06-04T02:07:27;16.10;99.60
19279;DHT22;9773;47.062;15.446;2023-06-04T02:09:53;16.10;99.50
19279;DHT22;9773;47.062;15.446;2023-06-04T02:12:18;16.10;99.50
19279;DHT22;9773;47.062;15.446;2023-06-04T02:14:44;16.10;99.40
19279;DHT22;9773;47.062;15.446;2023-06-04T02:17:13;16.10;99.40
19279;DHT22;9773;47.062;15.446;2023-06-04T02:19:40;16.10;99.60
19279;DHT22;9773;47.062;15.446;2023-06-04T02:22:15;16.10;99.60
19279;DHT22;9773;47.062;15.446;2023-06-04T02:24:41;16.10;99.60
19279;DHT22;9773;47.062;15.446;2023-06-04T02:27:11;16.10;99.60
19279;DHT22;9773;47.062;15.446;2023-06-04T02:29:39;16.10;99.70
19279;DHT22;9773;47.062;15.446;2023-06-04T02:32:06;16.10;99.70
19279;DHT22;9773;47.062;15.446;2023-06-04T02:34:32;16.00;99.70
19279;DHT22;9773;47.062;15.446;2023-06-04T02:36:59;16.10;99.80
19279;DHT22;9773;47.062;15.446;2023-06-04T02:39:25;16.10;99.90
19279;DHT22;9773;47.062;15.446;2023-06-04T02:41:51;16.00;99.90
19279;DHT22;9773;47.062;15.446;2023-06-04T02:44:17;16.00;99.90
19279;DHT22;9773;47.062;15.446;2023-06-04T02:46:43;16.00;99.90
19279;DHT22;9773;47.062;15.446;2023-06-04T02:49:10;15.90;99.90
19279;DHT22;9773;47.062;15.446;2023-06-04T02:51:39;15.90;99.90
19279;DHT22;9773;47.062;15.446;2023-06-04T02:54:05;15.90;99.90
19279;DHT22;9773;47.062;15.446;2023-06-04T02:56:31;15.90;99.90
19279;DHT22;9773;47.062;15.446;2023-06-04T02:58:57;15.90;99.90
19279;DHT22;9773;47.062;15.446;2023-06-04T03:01:23;16.00;99.90
19279;DHT22;9773;47.062;15.446;2023-06-04T03:03:50;15.90;99.90
19279;DHT22;9773;47.062;15.446;2023-06-04T03:06:17;15.80;99.90
19279;DHT22;9773;47.062;15.446;2023-06-04T03:08:43;15.80;99.90
19279;DHT22;9773;47.062;15.446;2023-06-04T03:11:09;15.90;99.90
19279;DHT22;9773;47.062;15.446;2023-06-04T03:13:35;15.80;99.90
19279;DHT22;9773;47.062;15.446;2023-06-04T03:16:02;15.90;99.90
19279;DHT22;9773;47.062;15.446;2023-06-04T03:18:30;15.80;99.90
19279;DHT22;9773;47.062;15.446;2023-06-04T03:20:58;15.80;99.90
19279;DHT22;9773;47.062;15.446;2023-06-04T03:23:24;15.80;99.90
19279;DHT22;9773;47.062;15.446;2023-06-04T03:25:50;15.90;99.90
19279;DHT22;9773;47.062;15.446;2023-06-04T03:28:16;15.80;99.90
19279;DHT22;9773;47.062;15.446;2023-06-04T03:30:41;15.80;99.90
19279;DHT22;9773;47.062;15.446;2023-06-04T03:33:08;15.90;99.90
19279;DHT22;9773;47.062;15.446;2023-06-04T03:35:35;15.90;99.90
19279;DHT22;9773;47.062;15.446;2023-06-04T03:38:01;15.90;99.90
19279;DHT22;9773;47.062;15.446;2023-06-04T03:40:26;15.90;99.90
19279;DHT22;9773;47.062;15.446;2023-06-04T03:42:52;15.90;99.90
19279;DHT22;9773;47.062;15.446;2023-06-04T03:45:18;15.80;99.90
19279;DHT22;9773;47.062;15.446;2023-06-04T03:47:44;15.80;99.90
19279;DHT22;9773;47.062;15.446;2023-06-04T03:50:10;15.80;99.90
19279;DHT22;9773;47.062;15.446;2023-06-04T03:52:36;15.80;99.90
19279;DHT22;9773;47.062;15.446;2023-06-04T03:55:01;15.80;99.90
19279;DHT22;9773;47.062;15.446;2023-06-04T03:57:28;15.90;99.90
19279;DHT22;9773;47.062;15.446;2023-06-04T03:59:54;16.00;99.90
19279;DHT22;9773;47.062;15.446;2023-06-04T04:02:19;16.10;99.90
19279;DHT22;9773;47.062;15.446;2023-06-04T04:04:45;16.10;99.90
19279;DHT22;9773;47.062;15.446;2023-06-04T04:07:11;16.10;99.90
19279;DHT22;9773;47.062;15.446;2023-06-04T04:09:37;16.10;99.90
19279;DHT22;9773;47.062;15.446;2023-06-04T04:12:06;16.10;99.90
19279;DHT22;9773;47.062;15.446;2023-06-04T04:14:31;16.00;99.90
19279;DHT22;9773;47.062;15.446;2023-06-04T04:16:57;16.10;99.90
19279;DHT22;9773;47.062;15.446;2023-06-04T04:19:23;16.20;99.90
19279;DHT22;9773;47.062;15.446;2023-06-04T04:21:49;16.20;99.90
19279;DHT22;9773;47.062;15.446;2023-06-04T04:24:27;16.30;99.90
19279;DHT22;9773;47.062;15.446;2023-06-04T04:26:54;16.30;99.90
19279;DHT22;9773;47.062;15.446;2023-06-04T04:29:20;16.40;99.90
19279;DHT22;9773;47.062;15.446;2023-06-04T04:31:54;16.40;99.90
19279;DHT22;9773;47.062;15.446;2023-06-04T04:34:25;16.30;99.90
19279;DHT22;9773;47.062;15.446;2023-06-04T04:36:51;16.30;99.90
19279;DHT22;9773;47.062;15.446;2023-06-04T04:39:25;16.30;99.90
19279;DHT22;9773;47.062;15.446;2023-06-04T04:41:51;16.40;99.90
19279;DHT22;9773;47.062;15.446;2023-06-04T04:44:17;16.50;99.90
19279;DHT22;9773;47.062;15.446;2023-06-04T04:46:43;16.50;99.90
19279;DHT22;9773;47.062;15.446;2023-06-04T04:49:09;16.50;99.90
19279;DHT22;9773;47.062;15.446;2023-06-04T04:51:35;16.50;99.90
19279;DHT22;9773;47.062;15.446;2023-06-04T04:54:01;16.30;99.80
19279;DHT22;9773;47.062;15.446;2023-06-04T04:56:27;16.60;99.60
19279;DHT22;9773;47.062;15.446;2023-06-04T04:58:53;16.70;99.70
19279;DHT22;9773;47.062;15.446;2023-06-04T05:01:19;16.70;99.60
19279;DHT22;9773;47.062;15.446;2023-06-04T05:03:45;16.80;99.70
19279;DHT22;9773;47.062;15.446;2023-06-04T05:06:11;16.80;99.80
19279;DHT22;9773;47.062;15.446;2023-06-04T05:08:37;16.80;99.70
19279;DHT22;9773;47.062;15.446;2023-06-04T05:11:02;16.90;99.60
19279;DHT22;9773;47.062;15.446;2023-06-04T05:13:28;17.00;99.70
19279;DHT22;9773;47.062;15.446;2023-06-04T05:15:54;17.00;99.50
19279;DHT22;9773;47.062;15.446;2023-06-04T05:18:20;16.90;99.50
19279;DHT22;9773;47.062;15.446;2023-06-04T05:20:58;17.00;99.40
19279;DHT22;9773;47.062;15.446;2023-06-04T05:23:26;17.10;99.40
19279;DHT22;9773;47.062;15.446;2023-06-04T05:25:52;17.20;99.20
19279;DHT22;9773;47.062;15.446;2023-06-04T05:28:18;17.30;99.20
19279;DHT22;9773;47.062;15.446;2023-06-04T05:30:45;17.30;99.10
19279;DHT22;9773;47.062;15.446;2023-06-04T05:33:14;17.30;98.80
19279;DHT22;9773;47.062;15.446;2023-06-04T05:35:48;17.30;99.00
19279;DHT22;9773;47.062;15.446;2023-06-04T05:38:14;17.50;99.10
19279;DHT22;9773;47.062;15.446;2023-06-04T05:40:51;17.40;99.40
19279;DHT22;9773;47.062;15.446;2023-06-04T05:43:18;17.40;99.30
19279;DHT22;9773;47.062;15.446;2023-06-04T05:45:43;17.20;99.60
19279;DHT22;9773;47.062;15.446;2023-06-04T05:48:09;17.40;99.80
19279;DHT22;9773;47.062;15.446;2023-06-04T05:50:35;17.30;99.70
19279;DHT22;9773;47.062;15.446;2023-06-04T05:53:01;17.40;99.50
19279;DHT22;9773;47.062;15.446;2023-06-04T05:55:26;17.50;99.60
19279;DHT22;9773;47.062;15.446;2023-06-04T05:57:54;17.40;99.60
19279;DHT22;9773;47.062;15.446;2023-06-04T06:00:20;17.30;99.50
19279;DHT22;9773;47.062;15.446;2023-06-04T06:02:47;17.30;99.60
19279;DHT22;9773;47.062;15.446;2023-06-04T06:05:17;17.50;99.60
19279;DHT22;9773;47.062;15.446;2023-06-04T06:07:43;17.50;99.60
19279;DHT22;9773;47.062;15.446;2023-06-04T06:10:09;17.50;99.40
19279;DHT22;9773;47.062;15.446;2023-06-04T06:12:35;17.60;99.00
19279;DHT22;9773;47.062;15.446;2023-06-04T06:15:01;17.70;99.30
19279;DHT22;9773;47.062;15.446;2023-06-04T06:17:26;17.70;98.90
19279;DHT22;9773;47.062;15.446;2023-06-04T06:19:54;17.80;99.10
19279;DHT22;9773;47.062;15.446;2023-06-04T06:22:21;17.70;98.80
19279;DHT22;9773;47.062;15.446;2023-06-04T06:24:47;17.80;98.80
19279;DHT22;9773;47.062;15.446;2023-06-04T06:27:16;18.00;98.40
19279;DHT22;9773;47.062;15.446;2023-06-04T06:29:43;18.10;98.20
19279;DHT22;9773;47.062;15.446;2023-06-04T06:32:09;18.10;98.60
19279;DHT22;9773;47.062;15.446;2023-06-04T06:34:35;18.30;98.10
19279;DHT22;9773;47.062;15.446;2023-06-04T06:37:02;18.30;98.30
19279;DHT22;9773;47.062;15.446;2023-06-04T06:39:28;18.30;98.30
19279;DHT22;9773;47.062;15.446;2023-06-04T06:41:54;18.40;98.00
19279;DHT22;9773;47.062;15.446;2023-06-04T06:44:20;18.60;98.10
19279;DHT22;9773;47.062;15.446;2023-06-04T06:46:46;18.80;98.20
19279;DHT22;9773;47.062;15.446;2023-06-04T06:49:14;19.10;97.90
19279;DHT22;9773;47.062;15.446;2023-06-04T06:51:40;19.50;97.90
19279;DHT22;9773;47.062;15.446;2023-06-04T06:54:08;19.60;97.50
19279;DHT22;9773;47.062;15.446;2023-06-04T06:56:34;19.50;97.40
19279;DHT22;9773;47.062;15.446;2023-06-04T06:59:00;19.60;97.50
19279;DHT22;9773;47.062;15.446;2023-06-04T07:01:26;19.50;96.90
19279;DHT22;9773;47.062;15.446;2023-06-04T07:03:52;19.70;96.50
19279;DHT22;9773;47.062;15.446;2023-06-04T07:06:17;19.70;96.70
19279;DHT22;9773;47.062;15.446;2023-06-04T07:08:43;19.80;96.40
19279;DHT22;9773;47.062;15.446;2023-06-04T07:11:09;19.80;96.50
19279;DHT22;9773;47.062;15.446;2023-06-04T07:13:39;19.60;96.60
19279;DHT22;9773;47.062;15.446;2023-06-04T07:16:04;19.40;96.20
19279;DHT22;9773;47.062;15.446;2023-06-04T07:18:30;19.40;96.20
19279;DHT22;9773;47.062;15.446;2023-06-04T07:20:56;19.50;95.80
19279;DHT22;9773;47.062;15.446;2023-06-04T07:23:22;19.50;96.00
19279;DHT22;9773;47.062;15.446;2023-06-04T07:25:48;19.70;96.10
19279;DHT22;9773;47.062;15.446;2023-06-04T07:28:13;19.70;96.00
19279;DHT22;9773;47.062;15.446;2023-06-04T07:30:39;19.70;95.40
19279;DHT22;9773;47.062;15.446;2023-06-04T07:33:05;19.60;95.40
19279;DHT22;9773;47.062;15.446;2023-06-04T07:35:31;19.80;95.90
19279;DHT22;9773;47.062;15.446;2023-06-04T07:37:57;20.00;96.30
19279;DHT22;9773;47.062;15.446;2023-06-04T07:40:23;20.20;96.60
19279;DHT22;9773;47.062;15.446;2023-06-04T07:42:49;20.20;96.00
19279;DHT22;9773;47.062;15.446;2023-06-04T07:45:15;20.30;95.50
19279;DHT22;9773;47.062;15.446;2023-06-04T07:47:42;20.40;95.60
19279;DHT22;9773;47.062;15.446;2023-06-04T07:50:08;20.60;95.40
19279;DHT22;9773;47.062;15.446;2023-06-04T07:52:34;20.90;95.70
19279;DHT22;9773;47.062;15.446;2023-06-04T07:55:00;21.20;96.00
19279;DHT22;9773;47.062;15.446;2023-06-04T07:57:26;21.40;95.60
19279;DHT22;9773;47.062;15.446;2023-06-04T07:59:52;21.50;95.40
19279;DHT22;9773;47.062;15.446;2023-06-04T08:02:18;21.60;95.40
19279;DHT22;9773;47.062;15.446;2023-06-04T08:04:45;21.80;95.50
19279;DHT22;9773;47.062;15.446;2023-06-04T08:07:11;21.90;95.30
19279;DHT22;9773;47.062;15.446;2023-06-04T08:09:38;21.80;95.60
19279;DHT22;9773;47.062;15.446;2023-06-04T08:12:04;21.60;95.60
19279;DHT22;9773;47.062;15.446;2023-06-04T08:14:29;21.80;96.10
19279;DHT22;9773;47.062;15.446;2023-06-04T08:16:57;21.80;95.70
19279;DHT22;9773;47.062;15.446;2023-06-04T08:19:23;21.90;95.40
19279;DHT22;9773;47.062;15.446;2023-06-04T08:21:50;21.70;94.90
19279;DHT22;9773;47.062;15.446;2023-06-04T08:24:16;21.60;95.10
19279;DHT22;9773;47.062;15.446;2023-06-04T08:26:42;21.70;94.60
19279;DHT22;9773;47.062;15.446;2023-06-04T08:29:07;21.80;95.40
19279;DHT22;9773;47.062;15.446;2023-06-04T08:31:33;21.60;95.10
19279;DHT22;9773;47.062;15.446;2023-06-04T08:33:59;21.60;95.10
19279;DHT22;9773;47.062;15.446;2023-06-04T08:36:26;21.70;95.30
19279;DHT22;9773;47.062;15.446;2023-06-04T08:38:52;21.90;94.90
19279;DHT22;9773;47.062;15.446;2023-06-04T08:41:29;21.80;94.90
19279;DHT22;9773;47.062;15.446;2023-06-04T08:43:56;21.90;94.80
19279;DHT22;9773;47.062;15.446;2023-06-04T08:46:23;21.90;93.80
19279;DHT22;9773;47.062;15.446;2023-06-04T08:48:50;22.10;93.70
19279;DHT22;9773;47.062;15.446;2023-06-04T08:51:16;22.30;94.20
19279;DHT22;9773;47.062;15.446;2023-06-04T08:53:43;22.30;93.60
19279;DHT22;9773;47.062;15.446;2023-06-04T08:56:09;22.30;93.60
19279;DHT22;9773;47.062;15.446;2023-06-04T08:58:36;21.90;93.70
19279;DHT22;9773;47.062;15.446;2023-06-04T09:01:05;21.60;93.80
19279;DHT22;9773;47.062;15.446;2023-06-04T09:03:32;21.70;93.90
19279;DHT22;9773;47.062;15.446;2023-06-04T09:05:59;21.50;94.20
19279;DHT22;9773;47.062;15.446;2023-06-04T09:08:26;21.60;94.70
19279;DHT22;9773;47.062;15.446;2023-06-04T09:10:55;21.80;94.60
19279;DHT22;9773;47.062;15.446;2023-06-04T09:13:22;22.00;94.30
19279;DHT22;9773;47.062;15.446;2023-06-04T09:16:02;22.40;94.50
19279;DHT22;9773;47.062;15.446;2023-06-04T09:18:29;22.60;94.10
19279;DHT22;9773;47.062;15.446;2023-06-04T09:21:08;22.60;94.30
19279;DHT22;9773;47.062;15.446;2023-06-04T09:23:43;22.60;94.50
19279;DHT22;9773;47.062;15.446;2023-06-04T09:26:10;22.90;93.80
19279;DHT22;9773;47.062;15.446;2023-06-04T09:28:43;23.10;93.60
19279;DHT22;9773;47.062;15.446;2023-06-04T09:31:10;23.00;93.20
19279;DHT22;9773;47.062;15.446;2023-06-04T09:33:43;23.00;93.00
19279;DHT22;9773;47.062;15.446;2023-06-04T09:36:10;22.60;93.30
19279;DHT22;9773;47.062;15.446;2023-06-04T09:38:36;22.60;94.10
19279;DHT22;9773;47.062;15.446;2023-06-04T09:41:02;22.80;94.00
19279;DHT22;9773;47.062;15.446;2023-06-04T09:43:32;22.90;93.50
19279;DHT22;9773;47.062;15.446;2023-06-04T09:46:14;22.90;93.20
19279;DHT22;9773;47.062;15.446;2023-06-04T09:48:40;22.90;93.50
19279;DHT22;9773;47.062;15.446;2023-06-04T09:51:15;22.60;93.20
19279;DHT22;9773;47.062;15.446;2023-06-04T09:53:56;22.30;93.30
19279;DHT22;9773;47.062;15.446;2023-06-04T09:56:22;22.30;93.80
19279;DHT22;9773;47.062;15.446;2023-06-04T09:58:49;22.40;93.90
19279;DHT22;9773;47.062;15.446;2023-06-04T10:01:15;22.40;93.50
19279;DHT22;9773;47.062;15.446;2023-06-04T10:03:47;22.40;93.80
19279;DHT22;9773;47.062;15.446;2023-06-04T10:06:15;22.40;94.20
19279;DHT22;9773;47.062;15.446;2023-06-04T10:08:44;22.80;94.40
19279;DHT22;9773;47.062;15.446;2023-06-04T10:11:12;23.10;93.90
19279;DHT22;9773;47.062;15.446;2023-06-04T10:13:48;23.30;93.70
19279;DHT22;9773;47.062;15.446;2023-06-04T10:16:14;23.50;93.50
19279;DHT22;9773;47.062;15.446;2023-06-04T10:18:40;23.70;94.00
19279;DHT22;9773;47.062;15.446;2023-06-04T10:21:07;23.60;92.90
19279;DHT22;9773;47.062;15.446;2023-06-04T10:23:34;23.50;92.90
19279;DHT22;9773;47.062;15.446;2023-06-04T10:26:00;23.60;92.80
19279;DHT22;9773;47.062;15.446;2023-06-04T10:28:26;23.70;93.00
19279;DHT22;9773;47.062;15.446;2023-06-04T10:30:53;23.80;93.20
19279;DHT22;9773;47.062;15.446;2023-06-04T10:33:20;25.20;93.80
19279;DHT22;9773;47.062;15.446;2023-06-04T10:35:50;23.90;92.80
19279;DHT22;9773;47.062;15.446;2023-06-04T10:38:16;23.90;92.60
19279;DHT22;9773;47.062;15.446;2023-06-04T10:40:44;23.80;92.70
19279;DHT22;9773;47.062;15.446;2023-06-04T10:43:11;23.70;92.60
19279;DHT22;9773;47.062;15.446;2023-06-04T10:45:37;23.40;92.50
19279;DHT22;9773;47.062;15.446;2023-06-04T10:48:07;23.10;93.20
19279;DHT22;9773;47.062;15.446;2023-06-04T10:50:34;23.30;93.50
19279;DHT22;9773;47.062;15.446;2023-06-04T10:53:01;23.10;93.60
19279;DHT22;9773;47.062;15.446;2023-06-04T10:55:31;23.10;93.90
19279;DHT22;9773;47.062;15.446;2023-06-04T10:57:57;23.40;93.60
19279;DHT22;9773;47.062;15.446;2023-06-04T11:00:35;23.50;93.80
19279;DHT22;9773;47.062;15.446;2023-06-04T11:03:01;23.60;93.50
19279;DHT22;9773;47.062;15.446;2023-06-04T11:05:37;23.50;93.20
19279;DHT22;9773;47.062;15.446;2023-06-04T11:08:04;23.60;93.80
19279;DHT22;9773;47.062;15.446;2023-06-04T11:10:36;23.60;94.50
19279;DHT22;9773;47.062;15.446;2023-06-04T11:13:03;23.60;93.80
19279;DHT22;9773;47.062;15.446;2023-06-04T11:15:41;23.60;93.80
19279;DHT22;9773;47.062;15.446;2023-06-04T11:18:08;23.70;93.50
19279;DHT22;9773;47.062;15.446;2023-06-04T11:20:34;23.70;93.60
19279;DHT22;9773;47.062;15.446;2023-06-04T11:23:00;23.80;93.30
19279;DHT22;9773;47.062;15.446;2023-06-04T11:25:29;23.90;93.60
19279;DHT22;9773;47.062;15.446;2023-06-04T11:27:56;23.80;93.50
19279;DHT22;9773;47.062;15.446;2023-06-04T11:30:23;23.70;93.70
19279;DHT22;9773;47.062;15.446;2023-06-04T11:32:50;23.90;93.80
19279;DHT22;9773;47.062;15.446;2023-06-04T11:35:16;24.00;93.70
19279;DHT22;9773;47.062;15.446;2023-06-04T11:37:55;23.90;93.80
19279;DHT22;9773;47.062;15.446;2023-06-04T11:40:21;23.70;93.90
19279;DHT22;9773;47.062;15.446;2023-06-04T11:42:48;23.80;94.30
19279;DHT22;9773;47.062;15.446;2023-06-04T11:45:18;23.70;94.00
19279;DHT22;9773;47.062;15.446;2023-06-04T11:47:48;23.60;94.10
19279;DHT22;9773;47.062;15.446;2023-06-04T11:50:14;23.50;94.10
19279;DHT22;9773;47.062;15.446;2023-06-04T11:52:41;23.50;93.90
19279;DHT22;9773;47.062;15.446;2023-06-04T11:55:11;23.30;93.70
19279;DHT22;9773;47.062;15.446;2023-06-04T11:57:38;23.40;94.30
19279;DHT22;9773;47.062;15.446;2023-06-04T12:00:05;23.60;94.20
19279;DHT22;9773;47.062;15.446;2023-06-04T12:02:37;23.80;94.00
19279;DHT22;9773;47.062;15.446;2023-06-04T12:05:14;24.10;94.10
19279;DHT22;9773;47.062;15.446;2023-06-04T12:07:40;24.30;94.00
19279;DHT22;9773;47.062;15.446;2023-06-04T12:10:07;24.50;93.60
19279;DHT22;9773;47.062;15.446;2023-06-04T12:12:43;24.40;93.50
19279;DHT22;9773;47.062;15.446;2023-06-04T12:15:09;24.30;93.60
19279;DHT22;9773;47.062;15.446;2023-06-04T12:17:36;24.30;94.30
19279;DHT22;9773;47.062;15.446;2023-06-04T12:20:03;24.20;94.10
19279;DHT22;9773;47.062;15.446;2023-06-04T12:22:31;24.00;94.00
19279;DHT22;9773;47.062;15.446;2023-06-04T12:24:57;24.00;94.30
19279;DHT22;9773;47.062;15.446;2023-06-04T12:27:27;23.90;94.00
19279;DHT22;9773;47.062;15.446;2023-06-04T12:30:00;23.90;94.70
19279;DHT22;9773;47.062;15.446;2023-06-04T12:32:27;23.80;94.90
19279;DHT22;9773;47.062;15.446;2023-06-04T12:34:53;23.60;94.50
19279;DHT22;9773;47.062;15.446;2023-06-04T12:37:23;23.50;94.80
19279;DHT22;9773;47.062;15.446;2023-06-04T12:39:51;23.40;94.90
19279;DHT22;9773;47.062;15.446;2023-06-04T12:42:18;23.20;95.00
19279;DHT22;9773;47.062;15.446;2023-06-04T12:44:44;23.00;94.90
19279;DHT22;9773;47.062;15.446;2023-06-04T12:47:10;22.90;95.00
19279;DHT22;9773;47.062;15.446;2023-06-04T12:49:37;22.80;95.30
19279;DHT22;9773;47.062;15.446;2023-06-04T12:52:03;22.70;95.50
19279;DHT22;9773;47.062;15.446;2023-06-04T12:54:29;22.50;95.70
19279;DHT22;9773;47.062;15.446;2023-06-04T12:56:55;22.40;95.90
19279;DHT22;9773;47.062;15.446;2023-06-04T12:59:25;22.30;96.00
19279;DHT22;9773;47.062;15.446;2023-06-04T13:01:52;22.40;96.00
19279;DHT22;9773;47.062;15.446;2023-06-04T13:04:19;22.40;96.30
19279;DHT22;9773;47.062;15.446;2023-06-04T13:06:45;22.50;96.20
19279;DHT22;9773;47.062;15.446;2023-06-04T13:09:12;22.40;98.10
19279;DHT22;9773;47.062;15.446;2023-06-04T13:11:39;22.40;97.30
19279;DHT22;9773;47.062;15.446;2023-06-04T13:14:05;22.20;97.60
19279;DHT22;9773;47.062;15.446;2023-06-04T13:16:31;22.10;97.90
19279;DHT22;9773;47.062;15.446;2023-06-04T13:18:57;21.90;97.90
19279;DHT22;9773;47.062;15.446;2023-06-04T13:21:23;21.90;99.30
19279;DHT22;9773;47.062;15.446;2023-06-04T13:23:49;21.70;98.60
19279;DHT22;9773;47.062;15.446;2023-06-04T13:26:17;21.60;99.20
19279;DHT22;9773;47.062;15.446;2023-06-04T13:28:46;21.60;98.90
19279;DHT22;9773;47.062;15.446;2023-06-04T13:31:12;21.50;99.60
19279;DHT22;9773;47.062;15.446;2023-06-04T13:33:38;21.50;99.80
19279;DHT22;9773;47.062;15.446;2023-06-04T13:36:07;21.70;99.90
19279;DHT22;9773;47.062;15.446;2023-06-04T13:38:33;21.60;99.90
19279;DHT22;9773;47.062;15.446;2023-06-04T13:40:59;21.30;99.90
19279;DHT22;9773;47.062;15.446;2023-06-04T13:43:25;21.00;99.90
19279;DHT22;9773;47.062;15.446;2023-06-04T13:45:51;20.80;99.90
19279;DHT22;9773;47.062;15.446;2023-06-04T13:48:17;20.70;99.90
19279;DHT22;9773;47.062;15.446;2023-06-04T13:50:43;20.20;99.90
19279;DHT22;9773;47.062;15.446;2023-06-04T13:53:09;20.00;99.90
19279;DHT22;9773;47.062;15.446;2023-06-04T13:55:35;20.00;99.90
19279;DHT22;9773;47.062;15.446;2023-06-04T13:58:02;20.10;99.90
19279;DHT22;9773;47.062;15.446;2023-06-04T14:00:27;20.20;99.90
19279;DHT22;9773;47.062;15.446;2023-06-04T14:02:55;20.40;99.90
19279;DHT22;9773;47.062;15.446;2023-06-04T14:05:22;20.40;99.90
19279;DHT22;9773;47.062;15.446;2023-06-04T14:07:50;20.60;99.90
19279;DHT22;9773;47.062;15.446;2023-06-04T14:10:16;20.60;99.90
19279;DHT22;9773;47.062;15.446;2023-06-04T14:12:41;20.70;99.90
19279;DHT22;9773;47.062;15.446;2023-06-04T14:15:09;20.50;99.90
19279;DHT22;9773;47.062;15.446;2023-06-04T14:17:36;20.40;99.90
19279;DHT22;9773;47.062;15.446;2023-06-04T14:20:04;20.30;99.90
19279;DHT22;9773;47.062;15.446;2023-06-04T14:22:36;19.90;99.90
19279;DHT22;9773;47.062;15.446;2023-06-04T14:25:07;19.90;99.90
19279;DHT22;9773;47.062;15.446;2023-06-04T14:27:34;20.00;99.90
19279;DHT22;9773;47.062;15.446;2023-06-04T14:30:01;19.80;99.90
19279;DHT22;9773;47.062;15.446;2023-06-04T14:32:27;19.70;99.90
19279;DHT22;9773;47.062;15.446;2023-06-04T14:34:53;19.50;99.90
19279;DHT22;9773;47.062;15.446;2023-06-04T14:37:19;19.40;99.90
19279;DHT22;9773;47.062;15.446;2023-06-04T14:39:46;19.30;99.90
19279;DHT22;9773;47.062;15.446;2023-06-04T14:42:12;19.00;99.90
19279;DHT22;9773;47.062;15.446;2023-06-04T14:44:38;18.80;99.90
19279;DHT22;9773;47.062;15.446;2023-06-04T14:47:05;18.60;99.90
19279;DHT22;9773;47.062;15.446;2023-06-04T14:49:30;18.40;99.90
19279;DHT22;9773;47.062;15.446;2023-06-04T14:51:56;18.20;99.90
19279;DHT22;9773;47.062;15.446;2023-06-04T14:54:22;18.00;99.90
19279;DHT22;9773;47.062;15.446;2023-06-04T14:56:47;18.00;99.90
19279;DHT22;9773;47.062;15.446;2023-06-04T14:59:13;17.90;99.90
19279;DHT22;9773;47.062;15.446;2023-06-04T15:01:39;17.90;99.90
19279;DHT22;9773;47.062;15.446;2023-06-04T15:04:06;17.90;99.90
19279;DHT22;9773;47.062;15.446;2023-06-04T15:06:32;17.90;99.90
19279;DHT22;9773;47.062;15.446;2023-06-04T15:08:58;17.90;99.90
19279;DHT22;9773;47.062;15.446;2023-06-04T15:11:24;18.00;99.90
19279;DHT22;9773;47.062;15.446;2023-06-04T15:13:51;18.10;99.90
19279;DHT22;9773;47.062;15.446;2023-06-04T15:16:17;18.30;99.90
19279;DHT22;9773;47.062;15.446;2023-06-04T15:18:43;18.40;99.90
19279;DHT22;9773;47.062;15.446;2023-06-04T15:21:08;18.50;99.90
19279;DHT22;9773;47.062;15.446;2023-06-04T15:23:34;18.60;99.90
19279;DHT22;9773;47.062;15.446;2023-06-04T15:26:00;18.80;99.90
19279;DHT22;9773;47.062;15.446;2023-06-04T15:28:27;18.90;99.90
19279;DHT22;9773;47.062;15.446;2023-06-04T15:30:52;19.00;99.90
19279;DHT22;9773;47.062;15.446;2023-06-04T15:33:18;19.20;99.90
19279;DHT22;9773;47.062;15.446;2023-06-04T15:35:44;19.30;99.90